LEBB Airport Information

Runway Information
Runway 10 Length 6562 ft width 148 ft
Elevation 116 ft Threshold 0 ft Heading 97
Runway 28 Length 6562 ft Width 148 ft
Elevation 129 ft Threshold 0 ft Heading 277
Runway 12 Length 8530 ft width 148 ft
Elevation 119 ft Threshold 0 ft Heading 117
Runway 30 Length 8530 ft Width 148 ft
Elevation 128 ft Threshold 1509 ft Heading 297
Airport Frequencies
Type APP Name APP Frequency 120.7 MHZ
Type ATIS Name ATIS Frequency 118.825 MHZ
Type GND Name GND Frequency 121.7 MHZ
Type TWR Name TWR Frequency 118.5 MHZ
Airport Navaids
Type VOR-DME Name Bilbao Frequency 115900 KHZ
Airport Weather Information & NOTAM
ADDS - METARS form results

(0226 UTC 10 May 2021)
Data provider http://aviationweather.gov/metar/data/
 
METAR text: LEBB 100200Z AUTO 08004KT 050V110 CAVOK 10/09 Q1008
Conditions at: LEBB (BILBAO/SONDICA , ES) observed 0200 UTC 10 May 2021
Temperature: 10.0°C (50°F)
Dewpoint: 9.0°C (48°F) [RH = 93%]
Pressure (altimeter): 29.76 inches Hg (1008.0 mb)
Winds: from the E (80 degrees) at 5 MPH (4 knots; 2.1 m/s)
Visibility: 6 or more miles (10+ km)
Ceiling: ceiling and visibility are OK
Clouds: unknown
Weather: no significant weather observed at this time

METAR text: LEBB 100130Z AUTO 12004KT 080V150 9999 FEW058 10/09 Q1008
Conditions at: LEBB (BILBAO/SONDICA , ES) observed 0130 UTC 10 May 2021
Temperature: 10.0°C (50°F)
Dewpoint: 9.0°C (48°F) [RH = 93%]
Pressure (altimeter): 29.76 inches Hg (1008.0 mb)
Winds: from the ESE (120 degrees) at 5 MPH (4 knots; 2.1 m/s)
Visibility: 6 or more miles (10+ km)
Ceiling: at least 12,000 feet AGL
Clouds: few clouds at 5800 feet AGL
Weather: no significant weather observed at this time

Forecast for: LEBB (BILBAO/SONDICA , ES)
Text: TAF LEBB 092300Z 1000/1024 16009KT 9999 FEW035 SCT050 TX21/1013Z TN08/1004Z
Forecast period: 0000 UTC 10 May 2021 to 0000 UTC 11 May 2021
Forecast type: FROM: standard forecast or significant change
Winds: from the SSE (160 degrees) at 10 MPH (9 knots; 4.6 m/s)
Visibility: 6 or more miles (10+ km)
Ceiling: at least 12,000 feet AGL
Clouds: few clouds at 3500 feet AGL
scattered clouds at 5000 feet AGL
Weather: no significant weather forecast for this period
Text: PROB40
Forecast period: 0400 to 0800 UTC 10 May 2021
Forecast type: TEMPORARY: The following changes expected for less than half the time period
Visibility: 1.86 miles (2.99 km)
Ceiling: unknown
Clouds: missing
Weather: RA  (moderate rain)
Text: TEMPO 1004/1008 3000 RA
Forecast period: 1800 UTC 10 May 2021 to 0000 UTC 11 May 2021
Forecast type: TEMPORARY: The following changes expected for less than half the time period
Winds: from the W (270 degrees) at 12 MPH (10 knots; 5.1 m/s)
Visibility: missing
Ceiling: unknown
Clouds: missing
Weather: RA  (moderate rain)